createdAt,value
2023-02-14T00:01:11.102Z,7.78
2023-02-14T00:03:37.609Z,8.00
2023-02-14T00:06:15.324Z,8.82
2023-02-14T00:08:44.423Z,10.90
2023-02-14T00:11:12.107Z,10.88
2023-02-14T00:13:39.062Z,10.27
2023-02-14T00:16:05.776Z,10.25
2023-02-14T00:18:50.826Z,9.93
2023-02-14T00:21:17.244Z,10.80
2023-02-14T00:23:43.762Z,11.32
2023-02-14T00:26:15.061Z,11.80
2023-02-14T00:28:42.029Z,14.77
2023-02-14T00:31:09.020Z,12.43
2023-02-14T00:33:35.615Z,12.73
2023-02-14T00:36:10.036Z,13.10
2023-02-14T00:38:36.629Z,12.40
2023-02-14T00:41:03.588Z,13.80
2023-02-14T00:43:30.115Z,12.45
2023-02-14T00:45:56.996Z,12.33
2023-02-14T00:48:23.648Z,12.32
2023-02-14T00:50:50.093Z,12.55
2023-02-14T00:53:16.729Z,10.98
2023-02-14T00:55:46.036Z,12.13
2023-02-14T00:58:13.127Z,12.33
2023-02-14T01:00:39.637Z,13.20
2023-02-14T01:03:06.157Z,12.48
2023-02-14T01:05:32.696Z,12.95
2023-02-14T01:07:59.193Z,13.38
2023-02-14T01:10:25.656Z,12.40
2023-02-14T01:12:52.088Z,13.15
2023-02-14T01:15:18.619Z,11.93
2023-02-14T01:17:45.276Z,11.35
2023-02-14T01:20:12.007Z,10.88
2023-02-14T01:22:38.855Z,10.77
2023-02-14T01:25:05.992Z,11.07
2023-02-14T01:27:33.131Z,10.88
2023-02-14T01:29:59.711Z,13.20
2023-02-14T01:32:26.382Z,12.48
2023-02-14T01:34:52.968Z,12.10
2023-02-14T01:37:19.471Z,10.93
2023-02-14T01:39:45.938Z,10.63
2023-02-14T01:42:12.492Z,9.23
2023-02-14T01:44:38.880Z,10.80
2023-02-14T01:47:08.446Z,9.73
2023-02-14T01:50:00.690Z,10.00
2023-02-14T01:52:37.499Z,10.98
2023-02-14T01:55:10.214Z,9.35
2023-02-14T01:57:44.121Z,9.27
2023-02-14T02:00:29.790Z,9.00
2023-02-14T02:02:58.907Z,9.52
2023-02-14T02:05:26.681Z,9.23
2023-02-14T02:07:57.100Z,8.70
2023-02-14T02:10:24.660Z,10.15
2023-02-14T02:12:53.553Z,10.07
2023-02-14T02:15:25.816Z,10.32
2023-02-14T02:17:52.236Z,10.25
2023-02-14T02:20:53.592Z,9.05
2023-02-14T02:23:29.207Z,9.05
2023-02-14T02:26:20.682Z,8.83
2023-02-14T02:29:16.747Z,8.13
2023-02-14T02:32:01.906Z,9.48
2023-02-14T02:35:05.617Z,8.77
2023-02-14T02:37:50.424Z,9.65
2023-02-14T02:40:42.046Z,9.03
2023-02-14T02:43:36.805Z,8.10
2023-02-14T02:46:39.585Z,9.07
2023-02-14T02:49:41.114Z,8.15
2023-02-14T02:53:02.959Z,7.68
2023-02-14T02:56:21.165Z,7.87
2023-02-14T02:58:56.703Z,8.43
2023-02-14T03:01:29.502Z,9.60
2023-02-14T03:04:19.216Z,9.55
2023-02-14T03:06:46.497Z,9.48
2023-02-14T03:09:33.498Z,9.17
2023-02-14T03:12:12.260Z,9.85
2023-02-14T03:14:56.179Z,10.13
2023-02-14T03:17:35.926Z,9.73
2023-02-14T03:20:15.324Z,9.55
2023-02-14T03:23:08.945Z,9.33
2023-02-14T03:26:00.764Z,10.18
2023-02-14T03:28:43.895Z,8.25
2023-02-14T03:31:26.472Z,9.75
2023-02-14T03:34:03.956Z,7.95
2023-02-14T03:36:57.280Z,8.27
2023-02-14T03:39:43.524Z,7.93
2023-02-14T03:42:19.141Z,7.85
2023-02-14T03:44:49.415Z,7.25
2023-02-14T03:47:24.551Z,7.47
2023-02-14T03:49:55.403Z,6.70
2023-02-14T03:52:24.793Z,7.60
2023-02-14T03:54:54.915Z,7.93
2023-02-14T03:57:24.809Z,7.78
2023-02-14T03:59:52.306Z,7.50
2023-02-14T04:02:29.731Z,7.57
2023-02-14T04:04:58.238Z,7.15
2023-02-14T04:07:25.548Z,7.50
2023-02-14T04:09:52.221Z,6.55
2023-02-14T04:12:32.338Z,7.50
2023-02-14T04:15:04.019Z,6.90
2023-02-14T04:17:49.120Z,7.40
2023-02-14T04:20:15.652Z,6.75
2023-02-14T04:22:42.200Z,6.97
2023-02-14T04:25:08.715Z,6.80
2023-02-14T04:27:35.236Z,7.43
2023-02-14T04:30:01.856Z,6.63
2023-02-14T04:32:28.437Z,7.43
2023-02-14T04:34:54.960Z,7.32
2023-02-14T04:37:21.520Z,7.35
2023-02-14T04:39:48.153Z,7.23
2023-02-14T04:42:15.004Z,7.10
2023-02-14T04:44:41.935Z,5.88
2023-02-14T04:47:09.097Z,6.50
2023-02-14T04:49:36.497Z,6.60
2023-02-14T04:52:04.308Z,6.53
2023-02-14T04:54:31.202Z,6.38
2023-02-14T04:56:57.911Z,7.00
2023-02-14T04:59:25.166Z,6.20
2023-02-14T05:01:52.544Z,6.35
2023-02-14T05:04:19.444Z,6.43
2023-02-14T05:06:46.021Z,6.78
2023-02-14T05:09:12.835Z,6.88
2023-02-14T05:11:39.364Z,6.50
2023-02-14T05:14:05.932Z,7.45
2023-02-14T05:16:32.561Z,7.27
2023-02-14T05:18:59.176Z,6.78
2023-02-14T05:21:28.505Z,7.20
2023-02-14T05:23:54.950Z,6.32
2023-02-14T05:26:21.456Z,6.65
2023-02-14T05:28:47.993Z,6.80
2023-02-14T05:31:14.554Z,6.40
2023-02-14T05:33:41.154Z,6.65
2023-02-14T05:36:08.800Z,7.85
2023-02-14T05:38:35.452Z,7.15
2023-02-14T05:41:02.686Z,6.87
2023-02-14T05:43:30.369Z,7.38
2023-02-14T05:45:57.974Z,7.82
2023-02-14T05:48:25.122Z,7.25
2023-02-14T05:50:51.832Z,7.97
2023-02-14T05:53:18.404Z,7.23
2023-02-14T05:55:44.961Z,7.55
2023-02-14T05:58:12.657Z,8.05
2023-02-14T06:00:41.326Z,7.05
2023-02-14T06:03:08.140Z,6.97
2023-02-14T06:05:34.739Z,6.20
2023-02-14T06:08:01.565Z,7.00
2023-02-14T06:10:28.135Z,6.60
2023-02-14T06:12:54.625Z,6.43
2023-02-14T06:15:21.542Z,6.32
2023-02-14T06:17:55.952Z,6.43
2023-02-14T06:20:24.221Z,6.43
2023-02-14T06:22:51.498Z,6.65
2023-02-14T06:25:18.019Z,6.63
2023-02-14T06:27:44.554Z,7.40
2023-02-14T06:30:11.799Z,6.20
2023-02-14T06:32:38.507Z,6.72
2023-02-14T06:35:05.898Z,7.32
2023-02-14T06:37:32.616Z,6.75
2023-02-14T06:39:59.168Z,7.43
2023-02-14T06:42:26.041Z,8.23
2023-02-14T06:44:52.519Z,7.35
2023-02-14T06:47:19.121Z,7.57
2023-02-14T06:49:45.618Z,7.70
2023-02-14T06:52:12.245Z,7.65
2023-02-14T06:54:38.809Z,7.73
2023-02-14T06:57:05.341Z,7.13
2023-02-14T06:59:31.860Z,7.68
2023-02-14T07:01:58.360Z,7.50
2023-02-14T07:04:24.866Z,8.30
2023-02-14T07:06:51.358Z,8.30
2023-02-14T07:09:18.542Z,7.75
2023-02-14T07:11:45.762Z,7.82
2023-02-14T07:14:13.252Z,7.65
2023-02-14T07:16:39.874Z,8.02
2023-02-14T07:19:06.462Z,8.40
2023-02-14T07:21:32.909Z,8.02
2023-02-14T07:23:59.505Z,7.88
2023-02-14T07:26:26.052Z,8.40
2023-02-14T07:28:52.564Z,8.20
2023-02-14T07:31:21.045Z,8.17
2023-02-14T07:33:47.732Z,8.52
2023-02-14T07:36:14.272Z,8.50
2023-02-14T07:38:40.793Z,7.85
2023-02-14T07:41:07.344Z,8.23
2023-02-14T07:43:36.674Z,8.40
2023-02-14T07:46:03.528Z,8.25
2023-02-14T07:48:32.556Z,9.23
2023-02-14T07:51:01.483Z,8.88
2023-02-14T07:53:28.243Z,9.65
2023-02-14T07:55:54.937Z,8.50
2023-02-14T07:58:21.892Z,9.65
2023-02-14T08:00:48.840Z,9.55
2023-02-14T08:03:15.741Z,9.80
2023-02-14T08:05:42.839Z,9.00
2023-02-14T08:08:09.596Z,10.60
2023-02-14T08:10:36.214Z,10.15
2023-02-14T08:13:03.651Z,9.73
2023-02-14T08:15:53.744Z,9.90
2023-02-14T08:18:23.239Z,9.43
2023-02-14T08:20:50.087Z,8.97
2023-02-14T08:23:18.657Z,9.30
2023-02-14T08:25:45.642Z,9.10
2023-02-14T08:28:13.839Z,9.43
2023-02-14T08:30:41.433Z,9.07
2023-02-14T08:33:08.362Z,8.40
2023-02-14T08:35:36.066Z,9.40
2023-02-14T08:38:04.200Z,8.73
2023-02-14T08:40:31.208Z,9.63
2023-02-14T08:42:57.700Z,8.93
2023-02-14T08:45:24.228Z,9.50
2023-02-14T08:47:50.910Z,10.38
2023-02-14T08:50:18.445Z,9.95
2023-02-14T08:52:45.175Z,9.80
2023-02-14T08:55:13.228Z,10.27
2023-02-14T08:57:40.620Z,8.97
2023-02-14T09:00:09.911Z,9.50
2023-02-14T09:02:36.647Z,9.68
2023-02-14T09:05:03.348Z,9.82
2023-02-14T09:07:29.921Z,9.85
2023-02-14T09:09:56.569Z,10.57
2023-02-14T09:12:23.107Z,10.85
2023-02-14T09:14:49.983Z,12.52
2023-02-14T09:17:18.275Z,11.35
2023-02-14T09:19:44.815Z,12.13
2023-02-14T09:22:12.168Z,12.73
2023-02-14T09:24:40.187Z,12.98
2023-02-14T09:27:07.552Z,12.90
2023-02-14T09:29:34.074Z,13.35
2023-02-14T09:32:02.537Z,13.30
2023-02-14T09:34:48.238Z,12.97
2023-02-14T09:37:34.037Z,13.63
2023-02-14T09:40:00.561Z,13.20
2023-02-14T09:42:37.465Z,13.70
2023-02-14T09:45:13.483Z,13.43
2023-02-14T09:48:19.570Z,14.50
2023-02-14T09:50:49.822Z,13.48
2023-02-14T09:53:16.251Z,13.90
2023-02-14T09:55:54.073Z,14.45
2023-02-14T09:58:33.356Z,13.15
2023-02-14T10:01:25.915Z,14.57
2023-02-14T10:03:58.528Z,14.35
2023-02-14T10:06:57.387Z,15.10
2023-02-14T10:09:38.885Z,13.18
2023-02-14T10:12:11.130Z,14.65
2023-02-14T10:14:40.958Z,13.27
2023-02-14T10:17:14.552Z,14.52
2023-02-14T10:19:49.824Z,13.77
2023-02-14T10:22:20.966Z,12.45
2023-02-14T10:25:06.077Z,12.88
2023-02-14T10:27:36.228Z,13.70
2023-02-14T10:30:12.272Z,12.45
2023-02-14T10:32:46.625Z,12.18
2023-02-14T10:35:26.625Z,12.07
2023-02-14T10:38:30.468Z,12.88
2023-02-14T10:41:31.073Z,12.53
2023-02-14T10:43:57.542Z,12.32
2023-02-14T10:47:04.725Z,12.45
2023-02-14T10:50:11.084Z,12.05
2023-02-14T10:52:46.251Z,11.98
2023-02-14T10:55:32.516Z,11.47
2023-02-14T10:58:04.055Z,12.25
2023-02-14T11:00:34.381Z,12.35
2023-02-14T11:03:06.239Z,11.40
2023-02-14T11:05:46.794Z,12.38
2023-02-14T11:08:29.502Z,12.13
2023-02-14T11:11:03.657Z,11.75
2023-02-14T11:13:38.438Z,11.95
2023-02-14T11:16:08.979Z,12.00
2023-02-14T11:18:36.747Z,11.85
2023-02-14T11:21:17.688Z,12.03
2023-02-14T11:23:46.538Z,11.80
2023-02-14T11:26:25.991Z,12.10
2023-02-14T11:29:12.165Z,12.13
2023-02-14T11:31:40.702Z,11.70
2023-02-14T11:34:28.548Z,11.50
2023-02-14T11:36:55.278Z,11.55
2023-02-14T11:39:32.701Z,11.82
2023-02-14T11:42:04.157Z,11.90
2023-02-14T11:44:33.200Z,11.27
2023-02-14T11:47:27.614Z,12.77
2023-02-14T11:49:58.900Z,12.23
2023-02-14T11:52:26.751Z,12.80
2023-02-14T11:54:54.392Z,11.65
2023-02-14T11:57:29.024Z,11.65
2023-02-14T11:59:56.880Z,11.87
2023-02-14T12:02:25.948Z,11.50
2023-02-14T12:04:56.435Z,12.02
2023-02-14T12:07:29.698Z,11.68
2023-02-14T12:10:17.460Z,11.73
2023-02-14T12:12:56.358Z,11.47
2023-02-14T12:15:44.228Z,11.57
2023-02-14T12:18:32.375Z,11.25
2023-02-14T12:21:41.359Z,11.20
2023-02-14T12:24:40.438Z,12.20
2023-02-14T12:27:30.296Z,11.63
2023-02-14T12:30:11.918Z,12.18
2023-02-14T12:32:46.548Z,12.05
2023-02-14T12:35:19.771Z,11.65
2023-02-14T12:38:03.941Z,11.90
2023-02-14T12:41:08.977Z,10.73
2023-02-14T12:43:56.152Z,11.43
2023-02-14T12:46:42.533Z,12.30
2023-02-14T12:49:16.225Z,12.88
2023-02-14T12:52:12.423Z,11.80
2023-02-14T12:55:13.944Z,11.93
2023-02-14T12:57:45.210Z,11.43
2023-02-14T13:00:24.815Z,12.80
2023-02-14T13:03:30.510Z,11.75
2023-02-14T13:06:37.165Z,11.07
2023-02-14T13:09:15.899Z,10.70
2023-02-14T13:12:29.318Z,11.45
2023-02-14T13:15:12.211Z,11.32
2023-02-14T13:17:53.055Z,10.32
2023-02-14T13:20:32.459Z,11.45
2023-02-14T13:23:04.770Z,10.53
2023-02-14T13:25:41.867Z,10.45
2023-02-14T13:28:14.441Z,11.32
2023-02-14T13:30:43.220Z,11.80
2023-02-14T13:33:27.392Z,12.10
2023-02-14T13:36:02.096Z,11.40
2023-02-14T13:38:31.945Z,11.20
2023-02-14T13:41:01.150Z,11.27
2023-02-14T13:43:47.652Z,11.88
2023-02-14T13:46:32.337Z,11.63
2023-02-14T13:49:04.103Z,11.30
2023-02-14T13:51:48.480Z,11.00
2023-02-14T13:54:30.166Z,11.05
2023-02-14T13:56:58.082Z,11.27
2023-02-14T13:59:35.416Z,11.50
2023-02-14T14:02:29.817Z,10.57
2023-02-14T14:04:56.761Z,11.00
2023-02-14T14:07:30.304Z,11.57
2023-02-14T14:09:59.248Z,11.57
2023-02-14T14:12:28.833Z,11.68
2023-02-14T14:15:07.364Z,11.23
2023-02-14T14:17:37.167Z,11.13
2023-02-14T14:20:26.141Z,11.35
2023-02-14T14:22:58.816Z,11.23
2023-02-14T14:25:33.978Z,12.18
2023-02-14T14:28:01.211Z,10.77
2023-02-14T14:30:32.911Z,11.27
2023-02-14T14:33:27.515Z,11.75
2023-02-14T14:35:57.063Z,11.30
2023-02-14T14:38:24.438Z,10.43
2023-02-14T14:40:52.079Z,11.50
2023-02-14T14:43:31.590Z,10.73
2023-02-14T14:46:02.376Z,10.98
2023-02-14T14:48:33.355Z,11.38
2023-02-14T14:51:00.650Z,10.80
2023-02-14T14:53:54.712Z,11.03
2023-02-14T14:56:24.351Z,11.93
2023-02-14T14:58:51.808Z,10.25
2023-02-14T15:01:48.269Z,10.73
2023-02-14T15:04:14.775Z,11.32
2023-02-14T15:06:41.551Z,10.87
2023-02-14T15:09:17.199Z,10.27
2023-02-14T15:12:04.151Z,11.05
2023-02-14T15:14:34.652Z,9.77
2023-02-14T15:17:07.470Z,10.48
2023-02-14T15:19:38.887Z,10.47
2023-02-14T15:22:08.188Z,10.05
2023-02-14T15:24:38.533Z,9.88
2023-02-14T15:27:05.185Z,10.32
2023-02-14T15:29:33.110Z,11.10
2023-02-14T15:32:03.186Z,10.33
2023-02-14T15:34:37.902Z,11.00
2023-02-14T15:37:06.687Z,10.35
2023-02-14T15:39:37.653Z,10.60
2023-02-14T15:42:05.955Z,10.27
2023-02-14T15:44:32.879Z,10.53
2023-02-14T15:47:02.947Z,10.65
2023-02-14T15:49:36.504Z,11.20
2023-02-14T15:52:06.022Z,11.05
2023-02-14T15:54:39.108Z,10.68
2023-02-14T15:57:17.177Z,10.57
2023-02-14T15:59:43.855Z,10.23
2023-02-14T16:02:33.405Z,10.23
2023-02-14T16:05:18.127Z,10.65
2023-02-14T16:08:05.715Z,10.88
2023-02-14T16:10:37.476Z,10.50
2023-02-14T16:13:08.645Z,10.38
2023-02-14T16:15:37.818Z,10.20
2023-02-14T16:18:17.992Z,11.50
2023-02-14T16:20:48.738Z,10.95
2023-02-14T16:23:17.814Z,10.63
2023-02-14T16:25:45.374Z,12.43
2023-02-14T16:28:12.187Z,12.35
2023-02-14T16:30:40.938Z,10.85
2023-02-14T16:33:19.962Z,11.75
2023-02-14T16:35:47.602Z,9.93
2023-02-14T16:38:16.819Z,10.30
2023-02-14T16:40:54.552Z,10.70
2023-02-14T16:43:21.473Z,10.63
2023-02-14T16:45:48.215Z,10.10
2023-02-14T16:48:17.702Z,11.13
2023-02-14T16:50:45.640Z,10.95
2023-02-14T16:53:21.698Z,10.60
2023-02-14T16:55:48.912Z,10.48
2023-02-14T16:58:15.592Z,10.20
2023-02-14T17:00:42.142Z,10.23
2023-02-14T17:03:11.387Z,10.00
2023-02-14T17:05:39.940Z,9.60
2023-02-14T17:08:11.123Z,10.15
2023-02-14T17:10:38.349Z,9.93
2023-02-14T17:13:05.949Z,9.60
2023-02-14T17:15:33.908Z,9.63
2023-02-14T17:18:04.778Z,10.73
2023-02-14T17:20:31.371Z,9.23
2023-02-14T17:22:58.355Z,9.95
2023-02-14T17:25:25.451Z,9.90
2023-02-14T17:27:52.036Z,9.30
2023-02-14T17:30:19.073Z,10.15
2023-02-14T17:32:45.673Z,10.73
2023-02-14T17:35:14.103Z,13.38
2023-02-14T17:37:40.660Z,14.93
2023-02-14T17:40:08.215Z,14.50
2023-02-14T17:42:35.159Z,14.48
2023-02-14T17:45:02.248Z,12.98
2023-02-14T17:47:29.615Z,11.73
2023-02-14T17:49:57.136Z,11.43
2023-02-14T17:52:24.383Z,13.05
2023-02-14T17:54:51.040Z,10.25
2023-02-14T17:57:17.472Z,12.02
2023-02-14T17:59:45.440Z,12.43
2023-02-14T18:02:12.095Z,12.27
2023-02-14T18:04:38.916Z,12.32
2023-02-14T18:07:05.801Z,13.68
2023-02-14T18:09:32.517Z,12.77
2023-02-14T18:11:59.270Z,12.48
2023-02-14T18:14:25.974Z,11.03
2023-02-14T18:16:52.395Z,9.95
2023-02-14T18:19:19.016Z,10.35
2023-02-14T18:21:45.613Z,11.00
2023-02-14T18:24:13.179Z,12.50
2023-02-14T18:26:41.336Z,10.77
2023-02-14T18:29:08.559Z,9.88
2023-02-14T18:31:37.627Z,10.52
2023-02-14T18:34:05.154Z,10.30
2023-02-14T18:36:32.344Z,10.05
2023-02-14T18:38:59.324Z,9.93
2023-02-14T18:41:27.055Z,14.82
2023-02-14T18:43:53.840Z,14.57
2023-02-14T18:46:25.908Z,13.77
2023-02-14T18:48:53.070Z,15.00
2023-02-14T18:51:25.381Z,12.67
2023-02-14T18:53:52.388Z,12.40
2023-02-14T18:56:21.960Z,14.07
2023-02-14T18:58:52.704Z,11.52
2023-02-14T19:01:22.286Z,12.20
2023-02-14T19:03:50.270Z,10.83
2023-02-14T19:06:18.069Z,15.65
2023-02-14T19:08:45.370Z,14.02
2023-02-14T19:11:11.833Z,10.70
2023-02-14T19:13:38.852Z,9.93
2023-02-14T19:16:13.339Z,9.73
2023-02-14T19:18:40.255Z,10.27
2023-02-14T19:21:21.364Z,12.45
2023-02-14T19:23:49.531Z,14.35
2023-02-14T19:26:18.939Z,14.57
2023-02-14T19:28:48.282Z,12.30
2023-02-14T19:31:16.565Z,11.02
2023-02-14T19:33:45.388Z,10.48
2023-02-14T19:36:14.272Z,10.05
2023-02-14T19:38:42.223Z,10.05
2023-02-14T19:41:18.729Z,9.97
2023-02-14T19:43:46.292Z,9.00
2023-02-14T19:46:16.989Z,9.52
2023-02-14T19:48:44.713Z,10.40
2023-02-14T19:51:22.321Z,10.60
2023-02-14T19:53:50.141Z,10.80
2023-02-14T19:56:24.665Z,10.57
2023-02-14T19:58:52.354Z,10.10
2023-02-14T20:01:43.092Z,9.50
2023-02-14T20:04:11.620Z,10.20
2023-02-14T20:06:38.407Z,10.13
2023-02-14T20:09:05.717Z,8.90
2023-02-14T20:11:44.043Z,9.07
2023-02-14T20:14:10.573Z,10.45
2023-02-14T20:16:37.782Z,10.75
2023-02-14T20:19:16.696Z,10.83
2023-02-14T20:21:48.725Z,9.85
2023-02-14T20:24:18.336Z,10.02
2023-02-14T20:26:45.686Z,10.68
2023-02-14T20:29:12.227Z,9.75
2023-02-14T20:31:42.949Z,8.87
2023-02-14T20:34:09.882Z,9.73
2023-02-14T20:36:36.662Z,9.75
2023-02-14T20:39:05.885Z,10.43
2023-02-14T20:41:35.716Z,10.55
2023-02-14T20:44:05.252Z,9.93
2023-02-14T20:46:32.743Z,12.43
2023-02-14T20:48:59.365Z,11.90
2023-02-14T20:51:26.387Z,10.40
2023-02-14T20:53:53.520Z,10.95
2023-02-14T20:56:23.454Z,13.33
2023-02-14T20:58:50.605Z,13.57
2023-02-14T21:01:20.011Z,12.32
2023-02-14T21:03:50.821Z,11.35
2023-02-14T21:06:19.644Z,10.15
2023-02-14T21:08:47.595Z,10.80
2023-02-14T21:11:16.360Z,9.43
2023-02-14T21:13:43.764Z,8.98
2023-02-14T21:16:16.585Z,8.43
2023-02-14T21:18:47.945Z,8.05
2023-02-14T21:21:47.123Z,8.83
2023-02-14T21:24:15.579Z,9.48
2023-02-14T21:26:43.035Z,9.45
2023-02-14T21:29:10.143Z,8.68
2023-02-14T21:31:37.325Z,9.57
2023-02-14T21:34:04.931Z,9.90
2023-02-14T21:36:35.597Z,9.40
2023-02-14T21:39:04.523Z,10.55
2023-02-14T21:41:32.150Z,10.77
2023-02-14T21:44:00.502Z,9.93
2023-02-14T21:46:31.098Z,9.10
2023-02-14T21:49:21.479Z,9.35
2023-02-14T21:51:48.568Z,9.77
2023-02-14T21:54:16.448Z,9.25
2023-02-14T21:56:43.781Z,9.77
2023-02-14T21:59:10.881Z,9.73
2023-02-14T22:01:39.877Z,10.43
2023-02-14T22:04:09.164Z,9.45
2023-02-14T22:06:38.659Z,10.23
2023-02-14T22:09:06.492Z,10.07
2023-02-14T22:11:33.567Z,10.40
2023-02-14T22:14:00.570Z,10.18
2023-02-14T22:16:27.569Z,10.05
2023-02-14T22:18:54.250Z,10.95
2023-02-14T22:21:24.134Z,10.10
2023-02-14T22:23:50.828Z,10.07
2023-02-14T22:26:29.961Z,10.45
2023-02-14T22:28:59.185Z,9.38
2023-02-14T22:31:28.245Z,9.85
2023-02-14T22:33:55.536Z,9.35
2023-02-14T22:36:22.414Z,9.23
2023-02-14T22:38:49.064Z,9.13
2023-02-14T22:41:22.179Z,9.48
2023-02-14T22:43:48.855Z,9.05
2023-02-14T22:46:17.949Z,9.80
2023-02-14T22:48:44.640Z,9.73
2023-02-14T22:51:26.244Z,9.43
2023-02-14T22:53:55.182Z,9.15
2023-02-14T22:56:27.190Z,9.15
2023-02-14T22:58:55.444Z,9.30
2023-02-14T23:01:23.370Z,9.10
2023-02-14T23:03:56.925Z,8.52
2023-02-14T23:06:27.485Z,8.10
2023-02-14T23:08:54.951Z,10.13
2023-02-14T23:11:24.835Z,8.45
2023-02-14T23:14:09.887Z,9.87
2023-02-14T23:16:55.644Z,9.70
2023-02-14T23:19:42.661Z,9.93
2023-02-14T23:22:15.103Z,10.20
2023-02-14T23:24:42.439Z,9.65
2023-02-14T23:27:09.820Z,9.50
2023-02-14T23:29:37.064Z,9.43
2023-02-14T23:32:05.152Z,9.60
2023-02-14T23:34:33.921Z,10.60
2023-02-14T23:37:00.696Z,9.80
2023-02-14T23:39:27.390Z,9.77
2023-02-14T23:41:53.892Z,10.32
2023-02-14T23:44:26.168Z,9.75
2023-02-14T23:46:55.164Z,9.73
2023-02-14T23:49:23.113Z,9.68
2023-02-14T23:51:51.540Z,9.43
2023-02-14T23:54:18.797Z,9.70
2023-02-14T23:56:45.760Z,11.50
2023-02-14T23:59:14.545Z,9.52
